Time;durP1;ratioP1;P1;durP2;ratioP2;P2;SDS_P1;SDS_P2;PMS_P1;PMS_P2;Temp;Humidity;BMP_temperature;BMP_pressure;BME280_temperature;BME280_humidity;BME280_pressure;Samples;Min_cycle;Max_cycle;Signal;HPM_P1;HPM_P2
2022/07/05 00:04:52;;;;;;;;;;;;;;;21.10;100.00;100644.34;10543360;28;19935;-68
2022/07/05 00:09:57;;;;;;;;;;;;;;;21.12;100.00;100641.63;10543041;28;19924;-66
2022/07/05 00:15:02;;;;;;;;;;;;;;;21.10;100.00;100636.44;10542943;28;19924;-68
2022/07/05 00:20:05;;;;;;;;;;;;;;;21.07;100.00;100644.47;10542675;28;19924;-66
2022/07/05 00:25:08;;;;;;;;;;;;;;;21.03;100.00;100632.38;10542861;28;19924;-69
2022/07/05 00:30:14;;;;;;;;;;;;;;;20.96;100.00;100630.91;10542930;28;19924;-69
2022/07/05 00:35:17;;;;;;;;;;;;;;;20.92;100.00;100639.03;10542628;28;20003;-68
2022/07/05 00:40:20;;;;;;;;;;;;;;;20.83;100.00;100635.06;10543831;28;20003;-63
2022/07/05 00:45:24;;;;;;;;;;;;;;;20.77;100.00;100635.38;10551025;28;20234;-66
2022/07/05 00:50:27;;;;;;;;;;;;;;;20.71;100.00;100648.00;10551061;28;19934;-69
2022/07/05 00:55:30;;;;;;;;;;;;;;;20.68;100.00;100660.41;10550272;28;19924;-70
2022/07/05 01:00:34;;;;;;;;;;;;;;;20.68;100.00;100670.94;10550373;28;19925;-67
2022/07/05 01:05:37;;;;;;;;;;;;;;;20.77;100.00;100674.06;10550364;28;20345;-67
2022/07/05 01:10:41;;;;;;;;;;;;;;;20.79;100.00;100675.72;10550088;28;19931;-66
2022/07/05 01:15:47;;;;;;;;;;;;;;;20.75;100.00;100663.59;10549768;28;19934;-67
2022/07/05 01:20:50;;;;;;;;;;;;;;;20.70;100.00;100678.78;10549373;28;20372;-64
2022/07/05 01:25:54;;;;;;;;;;;;;;;20.65;100.00;100686.94;10549344;28;20256;-69
2022/07/05 01:30:57;;;;;;;;;;;;;;;20.57;100.00;100691.69;10549162;28;19934;-68
2022/07/05 01:36:00;;;;;;;;;;;;;;;20.42;100.00;100695.03;10549180;28;19938;-68
2022/07/05 01:41:05;;;;;;;;;;;;;;;20.26;100.00;100688.72;10548679;28;19942;-67
2022/07/05 01:46:09;;;;;;;;;;;;;;;20.13;100.00;100687.53;10548576;28;19935;-67
2022/07/05 01:51:16;;;;;;;;;;;;;;;19.99;100.00;100692.53;10547823;28;20269;-67
2022/07/05 01:56:21;;;;;;;;;;;;;;;19.95;100.00;100698.84;10548299;28;19924;-69
2022/07/05 02:01:34;;;;;;;;;;;;;;;19.81;100.00;100710.91;10548051;28;19950;-69
2022/07/05 02:06:37;;;;;;;;;;;;;;;19.69;100.00;100711.41;10547710;28;19989;-64
2022/07/05 02:11:42;;;;;;;;;;;;;;;19.70;100.00;100702.59;10547530;28;19934;-69
2022/07/05 02:16:45;;;;;;;;;;;;;;;19.60;100.00;100702.13;10547537;28;19932;-65
2022/07/05 02:21:48;;;;;;;;;;;;;;;19.71;100.00;100699.06;10547147;28;19935;-67
2022/07/05 02:26:52;;;;;;;;;;;;;;;19.64;100.00;100716.84;10546995;28;19930;-66
2022/07/05 02:31:55;;;;;;;;;;;;;;;19.48;100.00;100707.91;10546605;28;19924;-67
2022/07/05 02:36:58;;;;;;;;;;;;;;;19.54;100.00;100712.91;10546507;28;19934;-67
2022/07/05 02:42:03;;;;;;;;;;;;;;;19.51;100.00;100713.91;10546210;28;20305;-66
2022/07/05 02:47:06;;;;;;;;;;;;;;;19.44;100.00;100722.97;10546302;28;20256;-65
2022/07/05 02:52:09;;;;;;;;;;;;;;;19.47;100.00;100719.34;10545745;28;20345;-67
2022/07/05 02:57:13;;;;;;;;;;;;;;;19.31;100.00;100719.09;10546135;28;19931;-65
2022/07/05 03:02:16;;;;;;;;;;;;;;;19.33;100.00;100726.91;10545455;28;20007;-68
2022/07/05 03:07:19;;;;;;;;;;;;;;;19.40;100.00;100736.28;10544773;28;19924;-64
2022/07/05 03:12:23;;;;;;;;;;;;;;;19.41;100.00;100733.59;10544916;28;19935;-67
2022/07/05 03:17:26;;;;;;;;;;;;;;;19.39;100.00;100743.34;10544847;28;19924;-66
2022/07/05 03:22:29;;;;;;;;;;;;;;;19.50;100.00;100751.66;10544555;28;19935;-66
2022/07/05 03:27:34;;;;;;;;;;;;;;;19.55;100.00;100759.41;10544549;28;20401;-65
2022/07/05 03:32:37;;;;;;;;;;;;;;;19.53;100.00;100763.88;10544374;28;20260;-68
2022/07/05 03:37:40;;;;;;;;;;;;;;;19.46;100.00;100749.22;10544166;28;19989;-67
2022/07/05 03:42:44;;;;;;;;;;;;;;;19.55;100.00;100756.75;10544065;28;20334;-65
2022/07/05 03:47:47;;;;;;;;;;;;;;;19.50;100.00;100753.44;10543805;28;19932;-66
2022/07/05 03:52:50;;;;;;;;;;;;;;;19.49;100.00;100762.25;10543591;28;19924;-67
2022/07/05 03:57:55;;;;;;;;;;;;;;;19.47;100.00;100756.19;10543792;28;19935;-68
2022/07/05 04:02:58;;;;;;;;;;;;;;;19.51;100.00;100748.13;10543149;28;20007;-67
2022/07/05 04:08:01;;;;;;;;;;;;;;;19.54;100.00;100741.88;10543239;28;20015;-65
2022/07/05 04:13:05;;;;;;;;;;;;;;;19.55;100.00;100754.13;10542915;28;19924;-66
2022/07/05 04:18:08;;;;;;;;;;;;;;;19.59;100.00;100765.41;10542527;28;20073;-68
2022/07/05 04:23:11;;;;;;;;;;;;;;;19.56;100.00;100766.38;10542873;28;20025;-66
2022/07/05 04:28:16;;;;;;;;;;;;;;;19.48;100.00;100764.03;10542828;28;20245;-68
2022/07/05 04:33:19;;;;;;;;;;;;;;;19.58;100.00;100772.44;10542761;28;19924;-68
2022/07/05 04:38:22;;;;;;;;;;;;;;;19.80;100.00;100761.88;10542650;28;19960;-65
2022/07/05 04:43:26;;;;;;;;;;;;;;;19.94;100.00;100757.75;10542548;28;19942;-72
2022/07/05 04:48:29;;;;;;;;;;;;;;;20.01;100.00;100767.13;10542361;28;19924;-65
2022/07/05 04:53:32;;;;;;;;;;;;;;;19.99;100.00;100762.81;10542289;28;19935;-66
2022/07/05 04:58:36;;;;;;;;;;;;;;;20.07;100.00;100766.00;10542399;28;20077;-67
2022/07/05 05:03:39;;;;;;;;;;;;;;;20.17;100.00;100764.72;10542171;28;19934;-64
2022/07/05 05:08:42;;;;;;;;;;;;;;;20.23;100.00;100767.94;10541889;28;19934;-67
2022/07/05 05:13:47;;;;;;;;;;;;;;;20.18;100.00;100777.81;10541675;28;19924;-67
2022/07/05 05:18:50;;;;;;;;;;;;;;;20.24;99.96;100771.44;10541470;28;19924;-69
2022/07/05 05:23:53;;;;;;;;;;;;;;;20.33;98.69;100786.84;10542068;28;19924;-66
2022/07/05 05:28:57;;;;;;;;;;;;;;;20.41;99.37;100790.91;10546287;28;19988;-66
2022/07/05 05:34:00;;;;;;;;;;;;;;;20.59;97.31;100776.88;10549066;28;19924;-68
2022/07/05 05:39:03;;;;;;;;;;;;;;;20.70;95.71;100773.78;10548794;28;19924;-67
2022/07/05 05:44:09;;;;;;;;;;;;;;;20.76;95.83;100784.03;10548634;28;20253;-67
2022/07/05 05:49:12;;;;;;;;;;;;;;;20.89;95.83;100774.66;10548439;28;19924;-66
2022/07/05 05:54:15;;;;;;;;;;;;;;;21.01;94.77;100770.63;10548304;28;20337;-66
2022/07/05 05:59:19;;;;;;;;;;;;;;;21.04;93.29;100765.19;10548119;28;19939;-69
2022/07/05 06:04:22;;;;;;;;;;;;;;;21.01;93.09;100755.66;10547760;28;19924;-67
2022/07/05 06:09:25;;;;;;;;;;;;;;;21.01;93.64;100745.09;10547906;28;19924;-67
2022/07/05 06:14:30;;;;;;;;;;;;;;;21.21;92.86;100750.28;10547252;28;19934;-66
2022/07/05 06:19:32;;;;;;;;;;;;;;;21.28;92.33;100761.41;10547086;28;19928;-66
2022/07/05 06:24:35;;;;;;;;;;;;;;;21.45;91.36;100756.19;10547155;28;19966;-65
2022/07/05 06:29:40;;;;;;;;;;;;;;;21.54;90.38;100759.22;10547201;28;20252;-66
2022/07/05 06:34:43;;;;;;;;;;;;;;;21.52;89.71;100760.22;10546492;28;19924;-67
2022/07/05 06:39:46;;;;;;;;;;;;;;;21.54;89.25;100753.94;10546149;28;19924;-69
2022/07/05 06:44:51;;;;;;;;;;;;;;;21.60;88.53;100758.94;10546063;28;19947;-65
2022/07/05 06:49:54;;;;;;;;;;;;;;;21.73;88.66;100753.88;10545985;28;19935;-64
2022/07/05 06:54:57;;;;;;;;;;;;;;;21.89;87.32;100765.47;10545859;28;19932;-68
2022/07/05 07:00:02;;;;;;;;;;;;;;;22.08;86.58;100760.94;10545690;28;19924;-67
2022/07/05 07:05:07;;;;;;;;;;;;;;;22.23;86.35;100764.59;10545549;28;19935;-66
2022/07/05 07:10:12;;;;;;;;;;;;;;;22.27;85.91;100760.84;10545292;28;19934;-68
2022/07/05 07:15:17;;;;;;;;;;;;;;;22.32;85.14;100764.97;10545179;28;19934;-65
2022/07/05 07:20:20;;;;;;;;;;;;;;;22.40;84.79;100768.06;10544969;28;19931;-65
2022/07/05 07:25:23;;;;;;;;;;;;;;;22.34;84.40;100768.41;10544432;28;20017;-67
2022/07/05 07:30:28;;;;;;;;;;;;;;;22.29;84.98;100781.03;10544504;28;19934;-65
2022/07/05 07:35:32;;;;;;;;;;;;;;;22.45;85.20;100770.50;10544242;28;19932;-66
2022/07/05 07:40:35;;;;;;;;;;;;;;;22.64;85.49;100777.41;10544054;28;19924;-67
2022/07/05 07:45:39;;;;;;;;;;;;;;;22.61;83.78;100774.06;10543888;28;19946;-67
2022/07/05 07:50:42;;;;;;;;;;;;;;;22.71;83.75;100762.09;10543277;28;19934;-65
2022/07/05 07:55:45;;;;;;;;;;;;;;;22.79;83.64;100749.28;10543580;28;19924;-69
2022/07/05 08:00:51;;;;;;;;;;;;;;;22.88;82.33;100754.91;10543518;28;20409;-71
2022/07/05 08:05:55;;;;;;;;;;;;;;;22.99;81.33;100766.75;10543211;28;19930;-70
2022/07/05 08:10:58;;;;;;;;;;;;;;;23.08;81.17;100745.03;10543346;28;19935;-69
2022/07/05 08:16:03;;;;;;;;;;;;;;;23.21;80.14;100746.06;10542991;28;19942;-68
2022/07/05 08:26:27;;;;;;;;;;;;;;;23.48;78.79;100740.09;10543059;28;19935;-68
2022/07/05 08:31:32;;;;;;;;;;;;;;;23.65;77.86;100741.78;10543126;28;19924;-69
2022/07/05 08:36:35;;;;;;;;;;;;;;;23.81;77.47;100734.66;10542490;28;20020;-65
2022/07/05 08:41:40;;;;;;;;;;;;;;;24.02;77.92;100736.09;10542439;28;19928;-64
2022/07/05 08:46:45;;;;;;;;;;;;;;;24.20;76.20;100742.94;10543247;28;19931;-65
2022/07/05 08:51:48;;;;;;;;;;;;;;;24.27;75.44;100738.97;10542699;28;19928;-69
2022/07/05 08:56:52;;;;;;;;;;;;;;;24.46;74.50;100738.69;10542548;28;19934;-68
2022/07/05 09:02:17;;;;;;;;;;;;;;;24.59;73.38;100735.19;10544400;28;19936;-69
2022/07/05 09:07:21;;;;;;;;;;;;;;;24.91;72.44;100728.78;10550677;28;20339;-70
2022/07/05 09:12:24;;;;;;;;;;;;;;;25.13;72.25;100729.09;10549998;28;20330;-66
2022/07/05 09:17:30;;;;;;;;;;;;;;;25.31;71.61;100743.03;10549793;28;20019;-66
2022/07/05 09:22:42;;;;;;;;;;;;;;;25.45;70.27;100740.34;10549317;28;20329;-65
2022/07/05 09:27:48;;;;;;;;;;;;;;;25.91;68.34;100739.00;10549349;28;19924;-67
2022/07/05 09:33:00;;;;;;;;;;;;;;;26.07;67.52;100741.53;10549309;28;19924;-65
2022/07/05 09:38:04;;;;;;;;;;;;;;;26.23;66.16;100733.34;10548907;28;19935;-65
2022/07/05 09:43:14;;;;;;;;;;;;;;;26.49;66.44;100740.38;10548904;28;20011;-68
2022/07/05 09:48:18;;;;;;;;;;;;;;;26.65;66.03;100736.53;10548502;28;19924;-67
2022/07/05 09:53:47;;;;;;;;;;;;;;;26.82;65.67;100722.91;10548329;28;19984;-67
2022/07/05 09:58:50;;;;;;;;;;;;;;;27.01;65.04;100720.63;10548191;28;19924;-68
2022/07/05 10:03:55;;;;;;;;;;;;;;;27.13;64.54;100719.72;10547869;28;19924;-67
2022/07/05 10:08:59;;;;;;;;;;;;;;;26.97;64.05;100721.78;10547826;28;19928;-69
2022/07/05 10:14:04;;;;;;;;;;;;;;;26.70;63.66;100723.78;10547041;28;20304;-67
2022/07/05 10:19:15;;;;;;;;;;;;;;;26.50;64.55;100726.97;10547090;28;19923;-69
2022/07/05 10:24:19;;;;;;;;;;;;;;;26.30;64.85;100729.31;10547391;28;20363;-66
2022/07/05 10:29:22;;;;;;;;;;;;;;;26.26;65.81;100727.81;10547088;28;19924;-66
2022/07/05 10:34:26;;;;;;;;;;;;;;;26.24;64.20;100730.56;10546544;28;20247;-68
2022/07/05 10:39:49;;;;;;;;;;;;;;;26.19;63.26;100733.56;10546526;28;20379;-68
2022/07/05 10:44:52;;;;;;;;;;;;;;;26.14;63.11;100725.00;10546339;28;19924;-69
2022/07/05 10:50:02;;;;;;;;;;;;;;;26.20;64.17;100723.75;10546092;28;19934;-66
2022/07/05 10:55:21;;;;;;;;;;;;;;;26.32;64.14;100722.91;10545584;28;19924;-66
2022/07/05 11:00:25;;;;;;;;;;;;;;;26.54;65.42;100719.59;10545653;28;20264;-66
2022/07/05 11:05:29;;;;;;;;;;;;;;;26.70;63.59;100733.56;10545616;28;19934;-67
2022/07/05 11:10:32;;;;;;;;;;;;;;;26.71;62.33;100722.81;10545360;28;20367;-66
2022/07/05 11:15:35;;;;;;;;;;;;;;;26.67;62.14;100724.00;10545250;28;19924;-66
2022/07/05 11:20:40;;;;;;;;;;;;;;;26.59;63.42;100721.00;10544589;28;19924;-66
2022/07/05 11:25:47;;;;;;;;;;;;;;;26.75;63.53;100702.97;10543813;28;19924;-68
2022/07/05 11:30:51;;;;;;;;;;;;;;;27.07;61.55;100698.00;10544635;28;19928;-68
2022/07/05 11:35:56;;;;;;;;;;;;;;;27.50;61.09;100695.72;10544460;28;19924;-67
2022/07/05 11:41:11;;;;;;;;;;;;;;;27.70;59.90;100693.25;10544511;28;19924;-66
2022/07/05 11:46:15;;;;;;;;;;;;;;;27.82;59.23;100688.84;10544028;28;20349;-67
2022/07/05 11:51:39;;;;;;;;;;;;;;;27.62;58.72;100687.66;10543839;28;20329;-68
2022/07/05 11:56:43;;;;;;;;;;;;;;;27.43;58.91;100686.47;10543591;28;20019;-68
2022/07/05 12:01:46;;;;;;;;;;;;;;;27.29;58.38;100672.38;10543434;28;19934;-69
2022/07/05 12:06:50;;;;;;;;;;;;;;;27.06;60.50;100667.00;10543193;28;19923;-68
2022/07/05 12:17:15;;;;;;;;;;;;;;;26.95;61.86;100657.13;10543306;28;19935;-67
2022/07/05 12:22:34;;;;;;;;;;;;;;;27.07;61.02;100653.56;10542811;28;20000;-68
2022/07/05 12:27:38;;;;;;;;;;;;;;;27.09;61.35;100658.78;10542999;28;20249;-67
2022/07/05 12:32:54;;;;;;;;;;;;;;;27.04;62.11;100650.25;10542678;28;20314;-68
2022/07/05 12:38:02;;;;;;;;;;;;;;;26.94;61.66;100658.06;10548029;28;19950;-68
2022/07/05 12:43:06;;;;;;;;;;;;;;;26.78;61.32;100659.31;10551450;28;19924;-67
2022/07/05 12:48:10;;;;;;;;;;;;;;;26.65;60.88;100664.63;10550966;28;19924;-65
2022/07/05 12:58:47;;;;;;;;;;;;;;;26.46;62.54;100676.66;10550334;28;19924;-64
2022/07/05 13:04:01;;;;;;;;;;;;;;;26.11;62.14;100687.97;10550386;28;19924;-68
2022/07/05 13:09:05;;;;;;;;;;;;;;;25.92;62.74;100687.50;10550006;28;19924;-71
2022/07/05 13:14:08;;;;;;;;;;;;;;;25.81;63.36;100678.53;10550178;28;20014;-64
2022/07/05 13:19:12;;;;;;;;;;;;;;;25.67;63.82;100687.47;10549482;28;19924;-69
2022/07/05 13:24:16;;;;;;;;;;;;;;;25.50;63.85;100684.22;10549849;28;19928;-67
2022/07/05 13:29:19;;;;;;;;;;;;;;;25.33;64.78;100680.00;10549245;28;19934;-68
2022/07/05 13:34:23;;;;;;;;;;;;;;;25.27;65.37;100687.47;10549141;28;19981;-67
2022/07/05 13:39:28;;;;;;;;;;;;;;;25.13;64.93;100682.25;10548988;28;20222;-65
2022/07/05 13:44:32;;;;;;;;;;;;;;;25.03;65.12;100689.94;10548963;28;19924;-68
2022/07/05 13:49:35;;;;;;;;;;;;;;;24.86;63.82;100696.34;10547638;28;19924;-67
2022/07/05 13:54:42;;;;;;;;;;;;;;;24.69;64.40;100701.88;10548092;28;20409;-67
2022/07/05 13:59:45;;;;;;;;;;;;;;;24.45;64.53;100706.00;10548226;28;19924;-64
2022/07/05 14:04:48;;;;;;;;;;;;;;;24.38;62.67;100702.03;10546454;28;19924;-66
2022/07/05 14:09:52;;;;;;;;;;;;;;;24.32;60.93;100712.13;10547680;28;19924;-68
2022/07/05 14:14:55;;;;;;;;;;;;;;;24.31;62.47;100716.63;10547362;28;19936;-67
2022/07/05 14:19:58;;;;;;;;;;;;;;;23.95;69.42;100748.78;10547252;28;20380;-71
2022/07/05 14:25:02;;;;;;;;;;;;;;;23.43;77.42;100773.09;10547120;28;19967;-67
2022/07/05 14:30:07;;;;;;;;;;;;;;;22.79;94.30;100784.56;10547936;28;19989;-69
2022/07/05 14:35:11;;;;;;;;;;;;;;;22.35;100.00;100793.91;10546904;28;19976;-68
2022/07/05 14:40:15;;;;;;;;;;;;;;;22.47;100.00;100792.41;10546591;28;20021;-66
2022/07/05 14:45:18;;;;;;;;;;;;;;;22.21;100.00;100812.28;10546237;28;20257;-68
2022/07/05 14:50:27;;;;;;;;;;;;;;;22.23;100.00;100818.34;10546001;28;19924;-66
2022/07/05 14:55:32;;;;;;;;;;;;;;;22.08;100.00;100828.84;10545952;28;19977;-64
2022/07/05 15:00:35;;;;;;;;;;;;;;;21.59;100.00;100833.84;10544868;28;19924;-64
2022/07/05 15:05:38;;;;;;;;;;;;;;;21.08;100.00;100830.13;10545549;28;19924;-65
2022/07/05 15:10:43;;;;;;;;;;;;;;;20.85;100.00;100831.13;10545351;28;19952;-66
2022/07/05 15:15:46;;;;;;;;;;;;;;;20.32;100.00;100822.91;10545271;28;19924;-65
2022/07/05 15:20:51;;;;;;;;;;;;;;;20.14;100.00;100828.91;10544736;28;19934;-73
2022/07/05 15:26:02;;;;;;;;;;;;;;;20.00;100.00;100833.91;10544886;28;19927;-66
2022/07/05 15:31:05;;;;;;;;;;;;;;;20.13;100.00;100821.94;10544712;28;19924;-68
2022/07/05 15:36:09;;;;;;;;;;;;;;;20.07;100.00;100813.44;10544296;28;19930;-69
2022/07/05 15:41:13;;;;;;;;;;;;;;;20.00;100.00;100804.91;10544208;28;19935;-68
2022/07/05 15:46:16;;;;;;;;;;;;;;;19.70;100.00;100808.81;10544145;28;19924;-64
2022/07/05 15:51:19;;;;;;;;;;;;;;;19.71;100.00;100807.06;10543815;28;19985;-65
2022/07/05 15:56:23;;;;;;;;;;;;;;;19.72;100.00;100806.13;10544042;28;19928;-62
2022/07/05 16:01:26;;;;;;;;;;;;;;;19.66;100.00;100807.22;10543610;28;19931;-69
2022/07/05 16:06:29;;;;;;;;;;;;;;;19.55;100.00;100812.06;10543131;28;20252;-65
2022/07/05 16:11:34;;;;;;;;;;;;;;;19.47;100.00;100801.81;10542942;28;19924;-65
2022/07/05 16:16:37;;;;;;;;;;;;;;;19.36;100.00;100811.06;10542990;28;19935;-68
2022/07/05 16:21:40;;;;;;;;;;;;;;;19.19;100.00;100811.66;10542930;28;19924;-64
2022/07/05 16:26:46;;;;;;;;;;;;;;;19.08;100.00;100819.13;10542567;28;20235;-70
2022/07/05 16:31:51;;;;;;;;;;;;;;;19.10;100.00;100816.44;10542863;28;19924;-66
2022/07/05 16:36:56;;;;;;;;;;;;;;;18.96;100.00;100816.09;10542653;28;19923;-64
2022/07/05 16:42:00;;;;;;;;;;;;;;;18.95;100.00;100816.97;10542601;28;19924;-64
2022/07/05 16:47:03;;;;;;;;;;;;;;;18.88;100.00;100815.53;10542603;28;19928;-65
2022/07/05 16:52:06;;;;;;;;;;;;;;;18.82;100.00;100813.09;10542439;28;19934;-69
2022/07/05 16:57:11;;;;;;;;;;;;;;;18.89;100.00;100804.06;10542204;28;19924;-68
2022/07/05 17:02:14;;;;;;;;;;;;;;;18.79;100.00;100803.56;10542010;28;19924;-67
2022/07/05 17:07:17;;;;;;;;;;;;;;;18.80;100.00;100799.13;10542170;28;19935;-70
2022/07/05 17:12:21;;;;;;;;;;;;;;;18.82;100.00;100802.56;10542150;28;19934;-68
2022/07/05 17:17:24;;;;;;;;;;;;;;;18.74;100.00;100799.38;10541873;28;19925;-67
2022/07/05 17:22:27;;;;;;;;;;;;;;;18.82;100.00;100807.84;10542781;28;19935;-66
2022/07/05 17:27:32;;;;;;;;;;;;;;;18.71;100.00;100789.81;10549663;28;19953;-69
2022/07/05 17:32:35;;;;;;;;;;;;;;;18.73;100.00;100789.75;10549264;28;19935;-66
2022/07/05 17:37:38;;;;;;;;;;;;;;;18.64;100.00;100785.69;10549192;28;19924;-64
2022/07/05 17:42:42;;;;;;;;;;;;;;;18.62;100.00;100790.13;10549050;28;19928;-70
2022/07/05 17:47:45;;;;;;;;;;;;;;;18.65;100.00;100795.31;10548794;28;19924;-71
2022/07/05 17:52:48;;;;;;;;;;;;;;;18.55;100.00;100788.63;10548527;28;19924;-65
2022/07/05 17:57:52;;;;;;;;;;;;;;;18.58;100.00;100785.94;10548381;28;19940;-66
2022/07/05 18:02:55;;;;;;;;;;;;;;;18.61;100.00;100785.81;10548063;28;19924;-66
2022/07/05 18:07:58;;;;;;;;;;;;;;;18.53;100.00;100777.34;10548009;28;19924;-68
2022/07/05 18:13:03;;;;;;;;;;;;;;;18.43;100.00;100787.31;10547938;28;19935;-66
2022/07/05 18:18:06;;;;;;;;;;;;;;;18.38;100.00;100786.59;10547603;28;19934;-68
2022/07/05 18:23:09;;;;;;;;;;;;;;;18.34;100.00;100782.34;10547262;28;19934;-64
2022/07/05 18:28:14;;;;;;;;;;;;;;;18.30;100.00;100775.50;10547198;28;19924;-64
2022/07/05 18:33:17;;;;;;;;;;;;;;;18.24;100.00;100774.84;10546750;28;20019;-66
2022/07/05 18:38:20;;;;;;;;;;;;;;;18.23;100.00;100776.63;10546519;28;19924;-64
2022/07/05 18:43:25;;;;;;;;;;;;;;;18.19;100.00;100772.38;10546495;28;19931;-65
2022/07/05 18:48:28;;;;;;;;;;;;;;;18.12;100.00;100765.59;10546517;28;20003;-65
2022/07/05 18:53:31;;;;;;;;;;;;;;;18.06;100.00;100759.72;10546249;28;20253;-66
2022/07/05 18:58:35;;;;;;;;;;;;;;;18.06;100.00;100744.81;10545920;28;20341;-65
2022/07/05 19:03:38;;;;;;;;;;;;;;;18.12;100.00;100755.09;10545624;28;19950;-65
2022/07/05 19:14:03;;;;;;;;;;;;;;;18.08;100.00;100734.25;10545281;28;19946;-68
2022/07/05 19:19:06;;;;;;;;;;;;;;;18.17;100.00;100728.69;10545004;28;19924;-67
2022/07/05 19:24:09;;;;;;;;;;;;;;;18.11;100.00;100731.50;10545152;28;19966;-63
2022/07/05 19:29:13;;;;;;;;;;;;;;;18.03;100.00;100726.50;10544631;28;19974;-68
2022/07/05 19:34:16;;;;;;;;;;;;;;;18.13;100.00;100722.66;10544733;28;19928;-63
2022/07/05 19:39:23;;;;;;;;;;;;;;;18.11;100.00;100726.25;10544766;28;19924;-71
2022/07/05 19:44:28;;;;;;;;;;;;;;;18.15;100.00;100733.13;10544271;28;20337;-67
2022/07/05 19:49:31;;;;;;;;;;;;;;;18.14;100.00;100710.38;10543557;28;19924;-63
2022/07/05 19:54:34;;;;;;;;;;;;;;;18.10;100.00;100709.63;10543824;28;19935;-70
2022/07/05 19:59:38;;;;;;;;;;;;;;;18.12;100.00;100717.47;10543699;28;19931;-68
2022/07/05 20:04:41;;;;;;;;;;;;;;;18.14;100.00;100721.75;10543536;28;19924;-69
2022/07/05 20:09:44;;;;;;;;;;;;;;;18.16;100.00;100724.31;10543470;28;19958;-66
2022/07/05 20:14:48;;;;;;;;;;;;;;;18.21;100.00;100722.38;10543215;28;19934;-68
2022/07/05 20:19:51;;;;;;;;;;;;;;;18.23;100.00;100716.19;10542817;28;19934;-65
2022/07/05 20:24:54;;;;;;;;;;;;;;;18.28;100.00;100716.00;10543072;28;19924;-67
2022/07/05 20:29:59;;;;;;;;;;;;;;;18.35;100.00;100721.00;10542958;28;20257;-70
2022/07/05 20:35:02;;;;;;;;;;;;;;;18.28;100.00;100714.25;10542483;28;20337;-68
2022/07/05 20:40:06;;;;;;;;;;;;;;;18.31;100.00;100724.63;10542526;28;19924;-66
2022/07/05 20:45:10;;;;;;;;;;;;;;;18.35;100.00;100730.63;10542570;28;20333;-64
2022/07/05 20:50:14;;;;;;;;;;;;;;;18.34;100.00;100737.66;10542587;28;19924;-64
2022/07/05 20:55:17;;;;;;;;;;;;;;;18.39;100.00;100729.63;10542349;28;19984;-65
2022/07/05 21:00:21;;;;;;;;;;;;;;;18.35;100.00;100733.25;10549540;28;19924;-65
2022/07/05 21:05:24;;;;;;;;;;;;;;;18.39;100.00;100732.25;10550507;28;20351;-63
2022/07/05 21:10:27;;;;;;;;;;;;;;;18.36;100.00;100732.38;10550284;28;19938;-66
2022/07/05 21:15:31;;;;;;;;;;;;;;;18.25;100.00;100729.25;10550203;28;19925;-68
2022/07/05 21:20:35;;;;;;;;;;;;;;;18.34;100.00;100740.28;10549480;28;20236;-70
2022/07/05 21:25:38;;;;;;;;;;;;;;;18.36;100.00;100730.56;10549713;28;20252;-64
2022/07/05 21:30:42;;;;;;;;;;;;;;;18.37;100.00;100734.94;10549662;28;20237;-63
2022/07/05 21:35:45;;;;;;;;;;;;;;;18.38;100.00;100739.28;10549545;28;19924;-69
2022/07/05 21:40:48;;;;;;;;;;;;;;;18.39;100.00;100738.38;10549139;28;20360;-68
2022/07/05 21:45:53;;;;;;;;;;;;;;;18.36;100.00;100733.22;10548806;28;19935;-65
2022/07/05 21:50:56;;;;;;;;;;;;;;;18.32;100.00;100746.53;10548660;28;20290;-65
2022/07/05 21:55:59;;;;;;;;;;;;;;;18.26;100.00;100758.09;10548477;28;19924;-64
2022/07/05 22:06:24;;;;;;;;;;;;;;;18.22;100.00;100767.00;10548001;28;19924;-63
2022/07/05 22:11:39;;;;;;;;;;;;;;;18.18;100.00;100765.41;10547267;28;19924;-63
2022/07/05 22:16:43;;;;;;;;;;;;;;;18.15;100.00;100769.91;10547798;28;19924;-64
2022/07/05 22:21:46;;;;;;;;;;;;;;;18.01;100.00;100765.13;10547670;28;19930;-65
2022/07/05 22:26:51;;;;;;;;;;;;;;;17.98;100.00;100767.84;10547536;28;19924;-66
2022/07/05 22:31:56;;;;;;;;;;;;;;;17.94;100.00;100761.00;10547121;28;19931;-66
2022/07/05 22:36:59;;;;;;;;;;;;;;;17.95;100.00;100759.19;10546936;28;19970;-65
2022/07/05 22:42:02;;;;;;;;;;;;;;;17.90;100.00;100764.63;10546550;28;20379;-65
2022/07/05 22:47:07;;;;;;;;;;;;;;;17.91;100.00;100768.94;10546625;28;19924;-64
2022/07/05 22:52:10;;;;;;;;;;;;;;;17.86;100.00;100768.25;10546523;28;20325;-64
2022/07/05 22:57:13;;;;;;;;;;;;;;;17.86;100.00;100760.38;10546580;28;19924;-63
2022/07/05 23:02:17;;;;;;;;;;;;;;;17.86;100.00;100768.25;10546060;28;19939;-67
2022/07/05 23:07:20;;;;;;;;;;;;;;;17.80;100.00;100759.72;10545998;28;19934;-68
2022/07/05 23:12:23;;;;;;;;;;;;;;;17.78;100.00;100757.16;10545540;28;19924;-65
2022/07/05 23:17:27;;;;;;;;;;;;;;;17.79;100.00;100752.75;10545273;28;19931;-66
2022/07/05 23:22:31;;;;;;;;;;;;;;;17.78;100.00;100749.28;10544043;28;19924;-66
2022/07/05 23:27:35;;;;;;;;;;;;;;;17.83;100.00;100751.72;10545001;28;19976;-62
2022/07/05 23:32:39;;;;;;;;;;;;;;;17.77;100.00;100750.19;10544939;28;19924;-64
2022/07/05 23:37:42;;;;;;;;;;;;;;;17.81;100.00;100743.06;10544640;28;19934;-66
2022/07/05 23:42:45;;;;;;;;;;;;;;;17.77;100.00;100744.94;10544278;28;19924;-67
2022/07/05 23:47:50;;;;;;;;;;;;;;;17.75;100.00;100749.38;10544058;28;20244;-67
2022/07/05 23:52:53;;;;;;;;;;;;;;;17.78;100.00;100754.53;10544154;28;20268;-63
2022/07/05 23:57:56;;;;;;;;;;;;;;;17.76;100.00;100745.84;10543978;28;19953;-65
